Telfer Mining Centre, Australia
Current Conditions -  °F | °C
As of 5:00 AM on Thursday 23 Oct 2014 (Local Time) from YNWN Reporting Station
Clear Clear  
Wind Chill: 75°   Ceiling: Unl
Heat Index: 75°   Visibility: NA
Dew Point: 45°   Wind: 6mph
Humidity: 34%   Direction: 240°WSW
Pressure: 29.97"   Gusts: NA
Location:  21.71°S, 122.22°E
Report Text: YNWN 222100Z AUTO 24005KT //// // NCD 24/07 Q1015
Loading
Personal Weather Stations






























Interactive Weather Map
Tropical Storm Tracking
New forecast layout! Learn more

10-Day Weather Forecast

Advertisements
Track Severe Weather on mobile